createdAt,value
2017-08-06T00:02:14.483Z,14.40
2017-08-06T00:04:42.753Z,10.23
2017-08-06T00:07:11.032Z,10.50
2017-08-06T00:09:39.311Z,12.27
2017-08-06T00:12:07.576Z,11.50
2017-08-06T00:14:36.617Z,10.70
2017-08-06T00:17:04.899Z,13.97
2017-08-06T00:19:33.144Z,10.03
2017-08-06T00:22:01.458Z,10.10
2017-08-06T00:24:29.821Z,12.40
2017-08-06T00:26:58.092Z,10.63
2017-08-06T00:29:26.359Z,12.73
2017-08-06T00:31:54.631Z,11.40
2017-08-06T00:34:22.888Z,11.30
2017-08-06T00:36:51.149Z,12.50
2017-08-06T00:39:20.229Z,14.23
2017-08-06T00:41:48.522Z,10.00
2017-08-06T00:44:17.553Z,9.57
2017-08-06T00:46:45.845Z,10.07
2017-08-06T00:49:14.068Z,7.80
2017-08-06T00:51:43.145Z,8.30
2017-08-06T00:54:11.537Z,8.20
2017-08-06T00:56:39.774Z,6.30
2017-08-06T00:59:08.042Z,10.23
2017-08-06T01:01:36.304Z,8.00
2017-08-06T01:04:04.542Z,6.07
2017-08-06T01:06:33.587Z,4.17
2017-08-06T01:09:01.930Z,5.90
2017-08-06T01:11:30.233Z,4.03
2017-08-06T01:13:58.491Z,10.27
2017-08-06T01:16:27.530Z,7.93
2017-08-06T01:18:55.800Z,4.47
2017-08-06T01:21:24.202Z,3.30
2017-08-06T01:23:52.444Z,3.40
2017-08-06T01:26:20.823Z,3.87
2017-08-06T01:28:49.215Z,3.13
2017-08-06T01:31:17.483Z,3.93
2017-08-06T01:33:45.799Z,4.23
2017-08-06T01:36:14.075Z,5.13
2017-08-06T01:38:43.115Z,4.30
2017-08-06T01:41:11.368Z,4.70
2017-08-06T01:43:40.420Z,6.73
2017-08-06T01:46:08.831Z,8.07
2017-08-06T01:48:37.876Z,8.70
2017-08-06T01:51:06.138Z,7.23
2017-08-06T01:53:34.523Z,6.67
2017-08-06T01:56:03.539Z,7.83
2017-08-06T01:58:31.828Z,5.23
2017-08-06T02:01:00.098Z,5.37
2017-08-06T02:03:28.415Z,7.23
2017-08-06T02:05:56.653Z,8.00
2017-08-06T02:08:24.919Z,6.47
2017-08-06T02:10:53.187Z,6.37
2017-08-06T02:13:21.446Z,10.43
2017-08-06T02:15:50.462Z,9.93
2017-08-06T02:18:18.720Z,6.10
2017-08-06T02:20:47.141Z,5.67
2017-08-06T02:23:15.388Z,7.40
2017-08-06T02:25:43.630Z,6.47
2017-08-06T02:28:12.653Z,7.20
2017-08-06T02:30:40.893Z,6.93
2017-08-06T02:33:09.149Z,6.20
2017-08-06T02:35:37.432Z,8.30
2017-08-06T02:38:05.667Z,6.53
2017-08-06T02:40:34.536Z,7.67
2017-08-06T02:43:02.886Z,6.67
2017-08-06T02:45:31.134Z,7.87
2017-08-06T02:47:59.388Z,7.83
2017-08-06T02:50:27.666Z,5.63
2017-08-06T02:52:55.929Z,7.63
2017-08-06T02:55:24.349Z,6.30
2017-08-06T02:57:52.628Z,5.43
2017-08-06T03:00:20.841Z,7.27
2017-08-06T03:02:49.878Z,7.20
2017-08-06T03:05:19.374Z,7.50
2017-08-06T03:07:47.637Z,8.30
2017-08-06T03:10:15.911Z,8.10
2017-08-06T03:12:44.957Z,5.70
2017-08-06T03:15:13.220Z,6.70
2017-08-06T03:17:41.524Z,9.63
2017-08-06T03:20:09.776Z,6.97
2017-08-06T03:22:38.160Z,4.80
2017-08-06T03:25:06.425Z,8.73
2017-08-06T03:27:34.700Z,7.43
2017-08-06T03:30:02.934Z,6.43
2017-08-06T03:32:31.486Z,5.37
2017-08-06T03:34:59.712Z,7.73
2017-08-06T03:37:27.999Z,10.00
2017-08-06T03:39:56.268Z,7.77
2017-08-06T03:42:24.585Z,9.10
2017-08-06T03:44:53.651Z,7.70
2017-08-06T03:47:21.912Z,6.47
2017-08-06T03:49:50.214Z,7.30
2017-08-06T03:52:18.459Z,9.70
2017-08-06T03:54:46.716Z,9.50
2017-08-06T03:57:15.722Z,14.23
2017-08-06T03:59:43.981Z,7.47
2017-08-06T04:02:12.989Z,7.40
2017-08-06T04:04:41.258Z,12.20
2017-08-06T04:07:09.512Z,6.27
2017-08-06T04:09:38.541Z,7.47
2017-08-06T04:12:06.805Z,9.90
2017-08-06T04:14:35.052Z,8.43
2017-08-06T04:17:03.302Z,9.23
2017-08-06T04:19:31.547Z,11.07
2017-08-06T04:21:59.824Z,9.60
2017-08-06T04:24:28.168Z,7.53
2017-08-06T04:26:56.402Z,8.40
2017-08-06T04:29:24.642Z,8.10
2017-08-06T04:31:52.899Z,8.93
2017-08-06T04:34:21.909Z,7.93
2017-08-06T04:36:50.228Z,8.40
2017-08-06T04:39:18.493Z,10.60
2017-08-06T04:41:46.728Z,11.97
2017-08-06T04:44:15.034Z,11.23
2017-08-06T04:46:43.285Z,10.80
2017-08-06T04:49:11.540Z,8.80
2017-08-06T04:51:40.582Z,8.57
2017-08-06T04:54:08.817Z,11.57
2017-08-06T04:56:37.827Z,11.93
2017-08-06T04:59:06.387Z,8.90
2017-08-06T05:01:35.400Z,8.80
2017-08-06T05:04:03.661Z,7.53
2017-08-06T05:06:32.659Z,8.27
2017-08-06T05:09:01.737Z,7.50
2017-08-06T05:11:30.040Z,13.73
2017-08-06T05:13:58.272Z,9.87
2017-08-06T05:16:26.559Z,8.57
2017-08-06T05:18:54.812Z,9.53
2017-08-06T05:21:23.066Z,9.03
2017-08-06T05:23:51.331Z,12.43
2017-08-06T05:26:19.574Z,13.10
2017-08-06T05:28:48.587Z,14.43
2017-08-06T05:31:16.863Z,10.63
2017-08-06T05:33:45.122Z,12.37
2017-08-06T05:36:14.154Z,12.33
2017-08-06T05:38:42.408Z,12.93
2017-08-06T05:41:10.669Z,11.70
2017-08-06T05:43:39.764Z,13.77
2017-08-06T05:46:08.771Z,12.00
2017-08-06T05:48:37.035Z,15.70
2017-08-06T05:51:06.151Z,12.83
2017-08-06T05:53:34.551Z,17.57
2017-08-06T05:56:02.818Z,19.73
2017-08-06T05:58:31.089Z,17.57
2017-08-06T06:00:59.357Z,16.13
2017-08-06T06:03:28.394Z,16.90
2017-08-06T06:05:56.659Z,16.13
2017-08-06T06:08:24.934Z,19.03
2017-08-06T06:10:53.314Z,18.87
2017-08-06T06:13:21.597Z,18.40
2017-08-06T06:15:49.907Z,17.23
2017-08-06T06:18:18.253Z,20.83
2017-08-06T06:20:46.505Z,19.30
2017-08-06T06:23:14.753Z,20.10
2017-08-06T06:25:44.432Z,20.97
2017-08-06T06:28:12.707Z,21.07
2017-08-06T06:30:40.979Z,21.60
2017-08-06T06:33:10.066Z,21.13
2017-08-06T06:35:38.308Z,20.17
2017-08-06T06:38:06.568Z,21.03
2017-08-06T06:40:35.657Z,19.23
2017-08-06T06:43:04.154Z,22.97
2017-08-06T06:45:33.163Z,23.37
2017-08-06T06:48:01.564Z,27.03
2017-08-06T06:50:29.849Z,18.90
2017-08-06T06:52:58.131Z,19.73
2017-08-06T06:55:26.445Z,15.33
2017-08-06T06:57:55.467Z,21.23
2017-08-06T07:00:23.732Z,16.57
2017-08-06T07:02:52.040Z,14.70
2017-08-06T07:05:20.452Z,15.90
2017-08-06T07:07:50.328Z,18.20
2017-08-06T07:10:18.612Z,20.60
2017-08-06T07:12:46.895Z,13.10
2017-08-06T07:15:15.151Z,13.67
2017-08-06T07:17:43.425Z,16.17
2017-08-06T07:20:11.724Z,15.17
2017-08-06T07:22:40.034Z,14.20
2017-08-06T07:25:09.122Z,13.90
2017-08-06T07:27:37.379Z,9.30
2017-08-06T07:33:05.831Z,10.30
2017-08-06T07:35:34.957Z,9.20
2017-08-06T07:38:03.255Z,8.57
2017-08-06T07:40:31.616Z,9.90
2017-08-06T07:42:59.933Z,9.77
2017-08-06T07:45:28.215Z,10.17
2017-08-06T07:47:56.456Z,6.83
2017-08-06T07:50:24.759Z,10.53
2017-08-06T07:52:53.777Z,6.40
2017-08-06T07:55:22.183Z,7.57
2017-08-06T07:57:50.477Z,8.23
2017-08-06T08:00:18.754Z,6.50
2017-08-06T08:02:47.016Z,6.50
2017-08-06T08:05:15.361Z,8.03
2017-08-06T08:07:43.695Z,9.00
2017-08-06T08:10:12.036Z,6.13
2017-08-06T08:12:40.285Z,5.17
2017-08-06T08:15:08.775Z,5.63
2017-08-06T08:17:37.795Z,5.07
2017-08-06T08:20:06.078Z,5.10
2017-08-06T08:22:34.366Z,11.93
2017-08-06T08:25:02.645Z,3.80
2017-08-06T08:27:30.891Z,4.57
2017-08-06T08:29:59.171Z,4.20
2017-08-06T08:32:28.346Z,3.90
2017-08-06T08:34:56.665Z,4.77
2017-08-06T08:37:24.942Z,5.10
2017-08-06T08:39:53.419Z,5.70
2017-08-06T08:42:21.743Z,4.00
2017-08-06T08:44:51.005Z,5.67
2017-08-06T08:47:19.300Z,7.17
2017-08-06T08:49:47.550Z,4.50
2017-08-06T08:52:15.852Z,3.47
2017-08-06T08:54:44.189Z,3.07
2017-08-06T08:57:12.428Z,3.23
2017-08-06T08:59:40.739Z,3.87
2017-08-06T09:02:09.764Z,5.07
2017-08-06T09:04:38.027Z,3.60
2017-08-06T09:07:06.475Z,4.70
2017-08-06T09:09:34.847Z,6.10
2017-08-06T09:12:03.119Z,3.60
2017-08-06T09:14:31.425Z,2.80
2017-08-06T09:17:00.527Z,2.93
2017-08-06T09:19:28.804Z,4.70
2017-08-06T09:21:57.107Z,3.67
2017-08-06T09:24:25.440Z,2.73
2017-08-06T09:26:54.540Z,3.23
2017-08-06T09:29:22.803Z,2.93
2017-08-06T09:31:51.832Z,4.70
2017-08-06T09:34:20.094Z,2.80
2017-08-06T09:36:49.214Z,4.37
2017-08-06T09:39:17.468Z,2.50
2017-08-06T09:41:45.889Z,3.33
2017-08-06T09:44:14.178Z,6.93
2017-08-06T09:46:42.440Z,4.63
2017-08-06T09:49:10.728Z,5.20
2017-08-06T09:51:38.978Z,3.53
2017-08-06T09:54:07.246Z,3.10
2017-08-06T09:56:35.557Z,2.67
2017-08-06T09:59:04.611Z,5.20
2017-08-06T10:01:32.871Z,2.90
2017-08-06T10:04:01.196Z,2.50
2017-08-06T10:06:29.441Z,8.93
2017-08-06T10:08:57.720Z,9.80
2017-08-06T10:11:26.009Z,4.33
2017-08-06T10:13:54.263Z,2.43
2017-08-06T10:16:23.269Z,3.47
2017-08-06T10:18:51.540Z,4.17
2017-08-06T10:21:19.855Z,2.17
2017-08-06T10:23:48.198Z,2.40
2017-08-06T10:26:16.472Z,2.00
2017-08-06T10:28:44.736Z,4.97
2017-08-06T10:31:13.007Z,3.03
2017-08-06T10:33:42.028Z,6.40
2017-08-06T10:36:10.360Z,3.53
2017-08-06T10:38:39.550Z,4.50
2017-08-06T10:41:07.844Z,4.00
2017-08-06T10:43:36.094Z,3.33
2017-08-06T10:46:04.405Z,2.63
2017-08-06T10:48:34.025Z,5.63
2017-08-06T10:51:03.069Z,3.70
2017-08-06T10:53:31.339Z,3.20
2017-08-06T10:55:59.619Z,3.50
2017-08-06T10:58:27.884Z,4.13
2017-08-06T11:00:56.290Z,3.83
2017-08-06T11:03:24.523Z,4.60
2017-08-06T11:05:52.894Z,4.43
2017-08-06T11:08:21.202Z,5.17
2017-08-06T11:10:49.475Z,4.90
2017-08-06T11:13:17.748Z,3.83
2017-08-06T11:15:46.174Z,4.20
2017-08-06T11:18:15.204Z,4.50
2017-08-06T11:20:43.483Z,4.00
2017-08-06T11:23:11.821Z,3.33
2017-08-06T11:25:40.539Z,2.70
2017-08-06T11:28:08.806Z,3.70
2017-08-06T11:30:37.115Z,6.50
2017-08-06T11:33:05.360Z,6.00
2017-08-06T11:35:33.635Z,3.70
2017-08-06T11:38:02.076Z,3.57
2017-08-06T11:40:30.315Z,4.20
2017-08-06T11:42:58.744Z,3.03
2017-08-06T11:45:27.971Z,5.00
2017-08-06T11:47:56.387Z,2.60
2017-08-06T11:50:24.697Z,2.70
2017-08-06T11:52:52.974Z,3.73
2017-08-06T11:55:22.021Z,2.93
2017-08-06T11:57:50.328Z,2.77
2017-08-06T12:00:18.618Z,2.87
2017-08-06T12:02:47.683Z,3.47
2017-08-06T12:05:15.946Z,4.43
2017-08-06T12:07:45.260Z,5.67
2017-08-06T12:10:13.551Z,2.77
2017-08-06T12:12:42.585Z,4.13
2017-08-06T12:15:11.793Z,4.50
2017-08-06T12:17:40.837Z,2.57
2017-08-06T12:20:09.124Z,2.57
2017-08-06T12:22:37.545Z,2.60
2017-08-06T12:25:05.799Z,2.60
2017-08-06T12:27:34.820Z,2.63
2017-08-06T12:30:03.158Z,2.87
2017-08-06T12:32:31.449Z,2.63
2017-08-06T12:35:00.532Z,2.47
2017-08-06T12:37:29.710Z,2.30
2017-08-06T12:39:57.999Z,2.47
2017-08-06T12:42:26.274Z,4.47
2017-08-06T12:44:54.597Z,2.00
2017-08-06T12:47:22.928Z,1.50
2017-08-06T12:49:51.203Z,2.80
2017-08-06T12:52:20.095Z,1.87
2017-08-06T12:54:48.481Z,1.70
2017-08-06T12:57:16.713Z,3.53
2017-08-06T12:59:44.965Z,2.23
2017-08-06T13:02:13.993Z,3.30
2017-08-06T13:04:42.240Z,1.90
2017-08-06T13:07:11.495Z,2.13
2017-08-06T13:09:39.742Z,1.53
2017-08-06T13:12:08.020Z,2.00
2017-08-06T13:14:36.310Z,1.90
2017-08-06T13:17:04.607Z,1.70
2017-08-06T13:19:32.844Z,7.00
2017-08-06T13:22:01.209Z,2.03
2017-08-06T13:24:29.476Z,5.20
2017-08-06T13:26:57.749Z,1.60
2017-08-06T13:29:26.029Z,2.60
2017-08-06T13:31:54.287Z,2.20
2017-08-06T13:34:22.631Z,1.10
2017-08-06T13:36:50.905Z,2.17
2017-08-06T13:39:19.292Z,1.60
2017-08-06T13:41:47.578Z,1.37
2017-08-06T13:44:16.623Z,1.20
2017-08-06T13:46:44.998Z,1.30
2017-08-06T13:49:13.268Z,1.70
2017-08-06T13:51:41.599Z,2.50
2017-08-06T13:54:10.793Z,1.60
2017-08-06T13:56:39.379Z,2.60
2017-08-06T13:59:07.879Z,3.00
2017-08-06T14:01:37.136Z,2.53
2017-08-06T14:04:06.040Z,3.83
2017-08-06T14:06:34.468Z,3.23
2017-08-06T14:09:03.042Z,1.53
2017-08-06T14:11:32.236Z,2.30
2017-08-06T14:14:00.531Z,1.50
2017-08-06T14:16:29.711Z,1.20
2017-08-06T14:18:58.903Z,1.63
2017-08-06T14:21:27.303Z,3.47
2017-08-06T14:23:55.669Z,1.60
2017-08-06T14:26:24.006Z,1.57
2017-08-06T14:28:52.515Z,1.70
2017-08-06T14:31:20.832Z,2.63
2017-08-06T14:33:49.105Z,2.27
2017-08-06T14:36:17.438Z,3.30
2017-08-06T14:38:46.669Z,2.13
2017-08-06T14:41:15.849Z,1.40
2017-08-06T14:43:44.916Z,1.93
2017-08-06T14:46:13.206Z,3.37
2017-08-06T14:48:44.482Z,3.40
2017-08-06T14:51:12.743Z,1.53
2017-08-06T14:53:41.122Z,1.23
2017-08-06T14:56:09.712Z,2.97
2017-08-06T14:58:38.031Z,2.07
2017-08-06T15:04:06.515Z,3.83
2017-08-06T15:06:34.838Z,2.33
2017-08-06T15:09:03.160Z,1.73
2017-08-06T15:11:32.393Z,2.23
2017-08-06T15:14:00.688Z,2.27
2017-08-06T15:16:28.973Z,1.60
2017-08-06T15:18:57.410Z,3.13
2017-08-06T15:21:25.958Z,2.20
2017-08-06T15:23:55.047Z,1.33
2017-08-06T15:26:23.842Z,3.30
2017-08-06T15:28:52.185Z,2.17
2017-08-06T15:31:21.301Z,5.20
2017-08-06T15:33:50.505Z,2.80
2017-08-06T15:36:19.101Z,2.60
2017-08-06T15:38:48.304Z,1.53
2017-08-06T15:41:16.623Z,1.77
2017-08-06T15:43:44.925Z,2.33
2017-08-06T15:46:13.472Z,3.03
2017-08-06T15:48:42.723Z,2.20
2017-08-06T15:51:11.079Z,1.40
2017-08-06T15:53:39.415Z,4.13
2017-08-06T15:56:08.551Z,2.63
2017-08-06T15:58:36.827Z,1.70
2017-08-06T16:01:05.087Z,1.80
2017-08-06T16:03:33.734Z,1.17
2017-08-06T16:06:02.001Z,1.70
2017-08-06T16:08:30.249Z,1.43
2017-08-06T16:10:58.608Z,2.20
2017-08-06T16:13:26.959Z,1.50
2017-08-06T16:15:55.407Z,1.83
2017-08-06T16:18:23.755Z,2.37
2017-08-06T16:21:09.392Z,2.93
2017-08-06T16:23:37.652Z,2.00
2017-08-06T16:26:05.918Z,3.17
2017-08-06T16:28:34.622Z,1.43
2017-08-06T16:31:03.700Z,1.37
2017-08-06T16:33:31.943Z,1.30
2017-08-06T16:36:00.232Z,1.40
2017-08-06T16:38:29.420Z,1.37
2017-08-06T16:41:07.514Z,1.63
2017-08-06T16:43:35.878Z,4.70
2017-08-06T16:46:04.430Z,1.17
2017-08-06T16:48:32.667Z,1.47
2017-08-06T16:51:00.977Z,1.53
2017-08-06T16:53:29.199Z,1.10
2017-08-06T16:55:57.545Z,3.30
2017-08-06T16:58:26.576Z,1.53
2017-08-06T17:00:54.871Z,5.40
2017-08-06T17:03:23.132Z,2.17
2017-08-06T17:05:51.418Z,3.00
2017-08-06T17:08:19.841Z,1.50
2017-08-06T17:10:48.098Z,2.03
2017-08-06T17:13:16.494Z,2.63
2017-08-06T17:15:44.881Z,2.83
2017-08-06T17:18:13.924Z,1.70
2017-08-06T17:20:42.257Z,1.80
2017-08-06T17:23:11.350Z,1.50
2017-08-06T17:25:40.544Z,3.27
2017-08-06T17:28:08.853Z,2.40
2017-08-06T17:30:37.320Z,1.70
2017-08-06T17:33:06.324Z,1.90
2017-08-06T17:35:34.633Z,1.70
2017-08-06T17:38:02.910Z,1.40
2017-08-06T17:40:31.175Z,1.90
2017-08-06T17:42:59.532Z,5.80
2017-08-06T17:45:27.807Z,2.23
2017-08-06T17:47:56.873Z,1.80
2017-08-06T17:50:25.927Z,4.67
2017-08-06T17:52:54.271Z,2.40
2017-08-06T17:55:23.399Z,1.80
2017-08-06T17:57:51.686Z,1.90
2017-08-06T18:00:19.990Z,2.53
2017-08-06T18:02:48.280Z,1.97
2017-08-06T18:05:17.331Z,1.60
2017-08-06T18:07:45.643Z,3.07
2017-08-06T18:10:13.921Z,2.00
2017-08-06T18:12:42.223Z,2.07
2017-08-06T18:15:11.332Z,2.00
2017-08-06T18:17:39.676Z,2.10
2017-08-06T18:20:08.768Z,4.20
2017-08-06T18:22:37.023Z,2.10
2017-08-06T18:25:08.938Z,3.30
2017-08-06T18:27:38.129Z,4.37
2017-08-06T18:30:07.137Z,2.67
2017-08-06T18:32:35.428Z,4.50
2017-08-06T18:35:03.715Z,2.03
2017-08-06T18:37:32.010Z,2.83
2017-08-06T18:40:00.510Z,3.60
2017-08-06T18:42:28.811Z,4.97
2017-08-06T18:44:57.826Z,3.13
2017-08-06T18:47:26.690Z,2.20
2017-08-06T18:50:05.173Z,2.57
2017-08-06T18:52:33.470Z,2.73
2017-08-06T18:55:02.575Z,6.60
2017-08-06T18:57:31.616Z,2.37
2017-08-06T18:59:59.919Z,2.60
2017-08-06T19:02:28.337Z,4.90
2017-08-06T19:04:57.437Z,5.33
2017-08-06T19:07:25.706Z,2.63
2017-08-06T19:09:54.215Z,2.87
2017-08-06T19:12:22.534Z,3.57
2017-08-06T19:14:50.857Z,5.20
2017-08-06T19:17:19.152Z,5.80
2017-08-06T19:19:47.440Z,2.27
2017-08-06T19:22:16.057Z,3.17
2017-08-06T19:24:44.445Z,2.80
2017-08-06T19:27:13.533Z,4.47
2017-08-06T19:29:42.019Z,3.60
2017-08-06T19:32:10.544Z,2.80
2017-08-06T19:34:39.672Z,3.37
2017-08-06T19:37:08.163Z,2.97
2017-08-06T19:39:36.769Z,2.93
2017-08-06T19:42:05.184Z,2.70
2017-08-06T19:44:33.716Z,3.53
2017-08-06T19:47:02.641Z,3.00
2017-08-06T19:49:31.198Z,5.10
2017-08-06T19:52:00.309Z,6.83
2017-08-06T19:54:30.423Z,3.13
2017-08-06T19:56:58.993Z,3.43
2017-08-06T19:59:28.107Z,2.07
2017-08-06T20:01:56.773Z,2.27
2017-08-06T20:04:25.391Z,5.37
2017-08-06T20:06:54.560Z,2.97
2017-08-06T20:09:23.226Z,4.70
2017-08-06T20:11:52.466Z,4.37
2017-08-06T20:14:20.772Z,2.50
2017-08-06T20:16:49.146Z,2.67
2017-08-06T20:19:17.594Z,4.23
2017-08-06T20:21:46.636Z,3.90
2017-08-06T20:24:15.345Z,3.60
2017-08-06T20:26:43.614Z,2.70
2017-08-06T20:29:13.213Z,3.20
2017-08-06T20:31:42.409Z,3.87
2017-08-06T20:34:11.531Z,3.73
2017-08-06T20:36:40.633Z,7.43
2017-08-06T20:39:08.933Z,3.60
2017-08-06T20:41:37.431Z,3.83
2017-08-06T20:44:05.856Z,3.53
2017-08-06T20:46:34.131Z,4.40
2017-08-06T20:49:02.448Z,6.63
2017-08-06T20:51:30.729Z,8.43
2017-08-06T20:53:59.022Z,5.07
2017-08-06T20:56:27.427Z,2.87
2017-08-06T20:58:55.879Z,3.27
2017-08-06T21:01:24.310Z,2.90
2017-08-06T21:03:52.693Z,3.23
2017-08-06T21:06:20.960Z,3.07
2017-08-06T21:08:50.281Z,3.10
2017-08-06T21:11:19.314Z,3.93
2017-08-06T21:13:47.623Z,3.30
2017-08-06T21:16:16.743Z,2.53
2017-08-06T21:18:45.060Z,5.30
2017-08-06T21:21:13.380Z,2.83
2017-08-06T21:23:41.681Z,3.13
2017-08-06T21:26:10.006Z,5.60
2017-08-06T21:28:39.186Z,3.10
2017-08-06T21:31:07.500Z,2.83
2017-08-06T21:33:36.762Z,2.73
2017-08-06T21:36:05.100Z,4.17
2017-08-06T21:38:34.152Z,3.07
2017-08-06T21:41:02.587Z,7.10
2017-08-06T21:43:31.643Z,6.60
2017-08-06T21:46:00.709Z,4.67
2017-08-06T21:48:29.088Z,6.20
2017-08-06T21:50:57.406Z,2.83
2017-08-06T21:53:25.677Z,4.30
2017-08-06T21:55:53.937Z,2.47
2017-08-06T21:58:23.061Z,3.30
2017-08-06T22:00:52.170Z,2.80
2017-08-06T22:03:21.202Z,3.10
2017-08-06T22:05:49.479Z,2.60
2017-08-06T22:08:17.765Z,5.43
2017-08-06T22:10:46.057Z,2.90
2017-08-06T22:13:15.117Z,4.73
2017-08-06T22:15:43.506Z,2.60
2017-08-06T22:18:12.031Z,2.00
2017-08-06T22:20:41.575Z,3.80
2017-08-06T22:23:09.857Z,6.00
2017-08-06T22:25:38.134Z,3.03
2017-08-06T22:28:06.401Z,5.77
2017-08-06T22:30:34.723Z,6.53
2017-08-06T22:33:02.955Z,2.73
2017-08-06T22:35:31.279Z,4.17
2017-08-06T22:37:59.515Z,2.70
2017-08-06T22:43:21.932Z,2.83
2017-08-06T22:45:50.186Z,2.60
2017-08-06T22:48:18.472Z,2.73
2017-08-06T22:50:46.758Z,5.23
2017-08-06T22:53:15.267Z,3.40
2017-08-06T22:55:43.553Z,3.60
2017-08-06T22:58:11.823Z,4.80
2017-08-06T23:00:40.228Z,2.90
2017-08-06T23:03:08.730Z,5.90
2017-08-06T23:05:37.011Z,2.80
2017-08-06T23:08:05.341Z,3.60
2017-08-06T23:10:33.634Z,2.80
2017-08-06T23:13:02.073Z,3.63
2017-08-06T23:15:30.376Z,2.23
2017-08-06T23:17:58.723Z,3.20
2017-08-06T23:20:26.960Z,3.00
2017-08-06T23:22:55.282Z,3.30
2017-08-06T23:25:23.530Z,3.07
2017-08-06T23:27:51.875Z,2.97
2017-08-06T23:30:20.281Z,2.80
2017-08-06T23:32:48.533Z,3.03
2017-08-06T23:35:16.809Z,3.23
2017-08-06T23:37:45.150Z,2.90
2017-08-06T23:40:14.233Z,3.70
2017-08-06T23:42:42.813Z,3.50
2017-08-06T23:45:11.093Z,3.40
2017-08-06T23:47:40.121Z,2.70
2017-08-06T23:50:08.522Z,3.90
2017-08-06T23:52:38.373Z,3.47
2017-08-06T23:55:07.676Z,4.13
2017-08-06T23:57:35.909Z,3.57
